ソルトレイクシティ の空港の天気 - METARとTAF

ソルト・レーク・シティ国際空港 ( KSLC / SLC ) - アメリカ ユタ州ソルトレイクシティ
飛行場実況気象(Metar)
観測時間05/27 18:54 MDT (05/28 00:54 UTC)
風向・風速北北西 5m/s
視程10km以上
天気現象
少しの雲 雲底高度 2590m
少しの雲 雲底高度 5490m
全天の4割程度の雲 雲底高度 7010m
気温28.3℃
湿度26%
気圧1013hPa
METARKSLC 280054Z 33010KT 10SM FEW085 FEW180 SCT230 28/07 A3006 RMK AO2 SLP130 T02830067
過去の天気等 Google飛行場航空写真 Wunderground天気予報

過去48時間のMETAR

飛行場予報(TAF)
発表時間: 5/27 17:38 MDT (5/27 23:38 UTC)
予報対象時間: 27日18時 MDT ~ 29日0時 MDT
風向・風速北北西 6m/s
視程10km以上
少しの雲 雲底高度 2740m
全天の4割程度の雲 雲底高度 6100m
27日20時 MDT から
風向・風速北 3m/s
視程10km以上
少しの雲 雲底高度 6100m
28日0時 MDT から
風向・風速南南東 3m/s
視程10km以上
なし
28日12時 MDT から
風向・風速北北西 4m/s
視程10km以上
少しの雲 雲底高度 4570m
28日22時 MDT から
風向・風速南南東 3m/s
視程10km以上
少しの雲 雲底高度 4570m
KSLC 272338Z 2800/2906 34011KT P6SM FEW090 SCT200
FM280200 01006KT P6SM FEW200
FM280600 15005KT P6SM SKC
FM281800 33007KT P6SM FEW150
FM290400 15006KT P6SM FEW150